createdAt,value
2018-12-19T00:00:20.533Z,98208.81
2018-12-19T00:02:52.210Z,98194.93
2018-12-19T00:05:23.719Z,98191.34
2018-12-19T00:07:55.328Z,98191.56
2018-12-19T00:10:26.827Z,98187.70
2018-12-19T00:12:58.429Z,98175.86
2018-12-19T00:15:29.933Z,98164.98
2018-12-19T00:18:01.444Z,98164.05
2018-12-19T00:20:32.936Z,98156.92
2018-12-19T00:23:04.711Z,98151.61
2018-12-19T00:25:36.236Z,98141.33
2018-12-19T00:28:07.829Z,98146.92
2018-12-19T00:30:39.423Z,98153.77
2018-12-19T00:33:10.921Z,98157.48
2018-12-19T00:35:42.354Z,98159.95
2018-12-19T00:38:13.900Z,98152.54
2018-12-19T00:40:45.325Z,98145.66
2018-12-19T00:43:16.923Z,98147.22
2018-12-19T00:45:48.531Z,98145.59
2018-12-19T00:48:20.104Z,98134.14
2018-12-19T00:50:51.694Z,98136.05
2018-12-19T00:53:23.141Z,98131.04
2018-12-19T00:55:54.838Z,98129.52
2018-12-19T00:58:26.438Z,98124.34
2018-12-19T01:00:57.999Z,98123.73
2018-12-19T01:03:29.420Z,98118.31
2018-12-19T01:06:01.023Z,98120.53
2018-12-19T01:08:32.615Z,98114.84
2018-12-19T01:11:04.189Z,98124.48
2018-12-19T01:13:35.764Z,98125.64
2018-12-19T01:16:07.227Z,98142.15
2018-12-19T01:18:38.781Z,98141.63
2018-12-19T01:21:10.237Z,98136.59
2018-12-19T01:23:41.788Z,98135.17
2018-12-19T01:26:13.291Z,98140.46
2018-12-19T01:28:44.897Z,98135.72
2018-12-19T01:31:16.505Z,98138.95
2018-12-19T01:33:48.018Z,98141.23
2018-12-19T01:36:19.540Z,98136.85
2018-12-19T01:38:51.818Z,98126.73
2018-12-19T01:41:23.287Z,98124.32
2018-12-19T01:43:54.833Z,98128.55
2018-12-19T01:46:26.310Z,98126.87
2018-12-19T01:48:57.821Z,98129.06
2018-12-19T01:51:29.333Z,98118.06
2018-12-19T01:54:00.834Z,98116.61
2018-12-19T01:56:32.294Z,98109.52
2018-12-19T01:59:03.842Z,98098.25
2018-12-19T02:01:35.300Z,98096.01
2018-12-19T02:04:06.948Z,98092.19
2018-12-19T02:06:38.407Z,98085.14
2018-12-19T02:09:10.572Z,98079.78
2018-12-19T02:11:42.077Z,98078.80
2018-12-19T02:14:13.580Z,98078.37
2018-12-19T02:16:45.129Z,98078.10
2018-12-19T02:19:16.585Z,98080.02
2018-12-19T02:21:48.132Z,98097.65
2018-12-19T02:24:19.546Z,98099.23
2018-12-19T02:26:51.143Z,98087.23
2018-12-19T02:29:22.597Z,98084.22
2018-12-19T02:31:54.134Z,98082.98
2018-12-19T02:34:25.597Z,98079.91
2018-12-19T02:36:57.206Z,98075.76
2018-12-19T02:39:28.615Z,98075.36
2018-12-19T02:42:00.148Z,98085.80
2018-12-19T02:44:31.677Z,98081.48
2018-12-19T02:47:03.260Z,98071.19
2018-12-19T02:49:39.778Z,98069.93
2018-12-19T02:52:11.378Z,98076.16
2018-12-19T02:54:42.961Z,98074.44
2018-12-19T02:57:14.397Z,98079.44
2018-12-19T02:59:46.001Z,98077.52
2018-12-19T03:02:17.517Z,98090.52
2018-12-19T03:04:49.054Z,98103.63
2018-12-19T03:07:20.519Z,98118.33
2018-12-19T03:09:52.115Z,98124.41
2018-12-19T03:12:23.619Z,98121.13
2018-12-19T03:14:55.215Z,98114.91
2018-12-19T03:17:26.625Z,98117.36
2018-12-19T03:19:58.232Z,98107.92
2018-12-19T03:22:29.735Z,98104.36
2018-12-19T03:25:01.269Z,98102.81
2018-12-19T03:27:32.740Z,98101.20
2018-12-19T03:30:04.348Z,98108.86
2018-12-19T03:32:35.843Z,98104.95
2018-12-19T03:35:07.518Z,98106.30
2018-12-19T03:37:38.960Z,98107.32
2018-12-19T03:40:10.505Z,98099.74
2018-12-19T03:42:41.908Z,98095.32
2018-12-19T03:45:13.506Z,98099.13
2018-12-19T03:47:45.050Z,98092.31
2018-12-19T03:50:16.585Z,98087.08
2018-12-19T03:52:48.220Z,98099.15
2018-12-19T03:55:19.788Z,98076.69
2018-12-19T03:57:51.448Z,98088.37
2018-12-19T04:00:22.948Z,98073.98
2018-12-19T04:02:54.541Z,98080.43
2018-12-19T04:05:27.091Z,98085.83
2018-12-19T04:07:58.633Z,98088.14
2018-12-19T04:10:30.325Z,98093.59
2018-12-19T04:13:01.955Z,98097.03
2018-12-19T04:15:33.589Z,98084.62
2018-12-19T04:18:05.008Z,98082.32
2018-12-19T04:20:36.605Z,98086.20
2018-12-19T04:23:08.095Z,98091.80
2018-12-19T04:25:39.704Z,98091.27
2018-12-19T04:28:11.310Z,98092.45
2018-12-19T04:30:42.920Z,98082.16
2018-12-19T04:33:14.461Z,98085.06
2018-12-19T04:35:46.236Z,98078.77
2018-12-19T04:38:17.819Z,98066.45
2018-12-19T04:40:49.210Z,98081.86
2018-12-19T04:43:20.767Z,98098.75
2018-12-19T04:45:52.391Z,98099.47
2018-12-19T04:48:23.905Z,98112.59
2018-12-19T04:50:55.508Z,98097.73
2018-12-19T04:53:27.004Z,98086.56
2018-12-19T04:55:58.608Z,98081.58
2018-12-19T04:58:30.123Z,98080.53
2018-12-19T05:01:01.717Z,98088.30
2018-12-19T05:03:33.225Z,98075.70
2018-12-19T05:06:04.784Z,98071.11
2018-12-19T05:08:36.324Z,98064.96
2018-12-19T05:11:07.840Z,98053.25
2018-12-19T05:13:39.329Z,98043.84
2018-12-19T05:16:10.979Z,98034.74
2018-12-19T05:18:42.444Z,98044.92
2018-12-19T05:21:13.991Z,98046.47
2018-12-19T05:23:45.458Z,98041.95
2018-12-19T05:26:17.008Z,98031.95
2018-12-19T05:28:48.456Z,98031.87
2018-12-19T05:31:19.992Z,98034.30
2018-12-19T05:33:51.468Z,98040.09
2018-12-19T05:36:23.008Z,98049.16
2018-12-19T05:38:55.134Z,98050.98
2018-12-19T05:41:26.630Z,98050.22
2018-12-19T05:43:58.231Z,98054.14
2018-12-19T05:46:29.752Z,98048.19
2018-12-19T05:49:01.148Z,98047.14
2018-12-19T05:51:32.828Z,98055.47
2018-12-19T05:54:04.341Z,98058.95
2018-12-19T05:56:36.053Z,98059.93
2018-12-19T05:59:07.480Z,98069.14
2018-12-19T06:01:39.073Z,98071.69
2018-12-19T06:04:10.556Z,98075.95
2018-12-19T06:06:42.164Z,98068.16
2018-12-19T06:09:13.809Z,98068.38
2018-12-19T06:11:45.479Z,98063.48
2018-12-19T06:14:16.883Z,98076.10
2018-12-19T06:16:48.478Z,98069.54
2018-12-19T06:19:19.947Z,98077.61
2018-12-19T06:21:51.543Z,98082.34
2018-12-19T06:24:23.090Z,98085.79
2018-12-19T06:26:54.757Z,98085.89
2018-12-19T06:29:26.255Z,98088.53
2018-12-19T06:31:57.801Z,98093.98
2018-12-19T06:34:29.356Z,98097.97
2018-12-19T06:37:00.964Z,98100.80
2018-12-19T06:39:32.568Z,98110.99
2018-12-19T06:42:04.179Z,98132.73
2018-12-19T06:44:35.702Z,98154.11
2018-12-19T06:47:07.087Z,98143.91
2018-12-19T06:49:38.814Z,98144.39
2018-12-19T06:52:10.283Z,98156.07
2018-12-19T06:54:41.785Z,98147.02
2018-12-19T06:57:13.201Z,98145.99
2018-12-19T06:59:44.792Z,98149.40
2018-12-19T07:02:16.237Z,98141.89
2018-12-19T07:04:47.894Z,98136.04
2018-12-19T07:07:19.368Z,98139.19
2018-12-19T07:09:51.016Z,98129.02
2018-12-19T07:12:22.560Z,98135.47
2018-12-19T07:14:54.131Z,98134.84
2018-12-19T07:17:25.651Z,98135.99
2018-12-19T07:19:57.134Z,98135.26
2018-12-19T07:22:28.732Z,98139.99
2018-12-19T07:25:00.247Z,98134.69
2018-12-19T07:27:31.790Z,98124.75
2018-12-19T07:30:03.265Z,98122.65
2018-12-19T07:32:34.777Z,98113.13
2018-12-19T07:35:06.642Z,98109.95
2018-12-19T07:37:38.197Z,98114.38
2018-12-19T07:40:09.617Z,98114.78
2018-12-19T07:42:41.208Z,98113.48
2018-12-19T07:45:12.820Z,98104.78
2018-12-19T07:47:44.324Z,98099.64
2018-12-19T07:50:15.824Z,98101.31
2018-12-19T07:52:47.696Z,98095.68
2018-12-19T07:55:19.284Z,98096.41
2018-12-19T07:57:50.703Z,98097.15
2018-12-19T08:00:27.466Z,98094.19
2018-12-19T08:02:55.888Z,98100.20
2018-12-19T08:05:27.320Z,98117.56
2018-12-19T08:07:58.900Z,98115.80
2018-12-19T08:10:30.400Z,98104.60
2018-12-19T08:13:01.895Z,98105.38
2018-12-19T08:15:33.346Z,98129.93
2018-12-19T08:18:05.675Z,98139.01
2018-12-19T08:20:37.389Z,98145.95
2018-12-19T08:23:08.826Z,98138.61
2018-12-19T08:25:40.401Z,98126.52
2018-12-19T08:28:11.906Z,98124.09
2018-12-19T08:30:43.412Z,98123.59
2018-12-19T08:33:15.012Z,98128.50
2018-12-19T08:35:46.516Z,98123.03
2018-12-19T08:38:18.196Z,98130.27
2018-12-19T08:40:49.760Z,98133.66
2018-12-19T08:43:21.132Z,98142.69
2018-12-19T08:45:53.232Z,98155.72
2018-12-19T08:48:25.000Z,98152.06
2018-12-19T08:50:56.955Z,98129.66
2018-12-19T08:53:28.647Z,98135.63
2018-12-19T08:56:00.264Z,98147.60
2018-12-19T08:58:31.682Z,98144.77
2018-12-19T09:01:03.284Z,98153.86
2018-12-19T09:03:34.696Z,98152.41
2018-12-19T09:06:06.491Z,98157.08
2018-12-19T09:08:38.032Z,98156.39
2018-12-19T09:11:09.593Z,98162.38
2018-12-19T09:13:41.010Z,98158.73
2018-12-19T09:16:12.591Z,98152.48
2018-12-19T09:18:44.165Z,98156.02
2018-12-19T09:21:15.704Z,98157.80
2018-12-19T09:23:47.316Z,98157.83
2018-12-19T09:26:21.678Z,98155.75
2018-12-19T09:28:53.189Z,98151.58
2018-12-19T09:31:24.780Z,98147.23
2018-12-19T09:33:56.405Z,98140.66
2018-12-19T09:36:27.895Z,98136.41
2018-12-19T09:38:59.498Z,98138.30
2018-12-19T09:41:31.009Z,98142.83
2018-12-19T09:44:02.407Z,98141.92
2018-12-19T09:46:34.113Z,98145.04
2018-12-19T09:49:12.220Z,98148.86
2018-12-19T09:51:39.176Z,98151.95
2018-12-19T09:54:10.715Z,98144.09
2018-12-19T09:56:42.370Z,98147.80
2018-12-19T09:59:13.926Z,98151.97
2018-12-19T10:01:45.442Z,98152.83
2018-12-19T10:04:17.083Z,98151.48
2018-12-19T10:06:48.644Z,98153.48
2018-12-19T10:09:20.252Z,98148.07
2018-12-19T10:11:51.897Z,98152.96
2018-12-19T10:14:23.458Z,98140.94
2018-12-19T10:16:58.448Z,98142.69
2018-12-19T10:19:29.936Z,98136.98
2018-12-19T10:22:01.487Z,98136.03
2018-12-19T10:24:38.218Z,98147.97
2018-12-19T10:27:11.882Z,98133.76
2018-12-19T10:29:43.371Z,98133.84
2018-12-19T10:32:14.880Z,98128.33
2018-12-19T10:34:46.502Z,98121.20
2018-12-19T10:37:17.997Z,98121.25
2018-12-19T10:39:49.801Z,98126.05
2018-12-19T10:42:21.308Z,98121.61
2018-12-19T10:44:52.901Z,98123.72
2018-12-19T10:47:24.418Z,98120.58
2018-12-19T10:49:56.024Z,98110.80
2018-12-19T10:52:27.632Z,98113.30
2018-12-19T10:54:59.122Z,98112.56
2018-12-19T10:57:30.844Z,98118.55
2018-12-19T11:00:02.372Z,98113.88
2018-12-19T11:02:33.851Z,98110.08
2018-12-19T11:05:05.725Z,98110.60
2018-12-19T11:07:37.156Z,98104.06
2018-12-19T11:10:09.771Z,98108.72
2018-12-19T11:12:41.282Z,98104.66
2018-12-19T11:15:12.699Z,98100.08
2018-12-19T11:17:44.345Z,98101.80
2018-12-19T11:20:15.910Z,98106.78
2018-12-19T11:22:47.504Z,98099.66
2018-12-19T11:25:19.112Z,98096.48
2018-12-19T11:27:50.603Z,98093.39
2018-12-19T11:30:22.024Z,98094.12
2018-12-19T11:32:53.610Z,98097.56
2018-12-19T11:35:25.215Z,98092.73
2018-12-19T11:37:56.716Z,98087.48
2018-12-19T11:40:28.337Z,98082.52
2018-12-19T11:42:59.840Z,98080.68
2018-12-19T11:45:31.438Z,98076.08
2018-12-19T11:48:02.952Z,98066.89
2018-12-19T11:50:34.548Z,98054.88
2018-12-19T11:53:06.052Z,98051.52
2018-12-19T11:55:37.695Z,98051.61
2018-12-19T11:58:09.161Z,98041.14
2018-12-19T12:00:40.800Z,98048.22
2018-12-19T12:03:12.369Z,98042.56
2018-12-19T12:05:43.914Z,98039.30
2018-12-19T12:08:15.444Z,98041.51
2018-12-19T12:10:47.016Z,98033.67
2018-12-19T12:13:18.420Z,98027.17
2018-12-19T12:15:50.124Z,98025.38
2018-12-19T12:18:21.536Z,98026.85
2018-12-19T12:20:53.117Z,98025.58
2018-12-19T12:23:24.536Z,98023.48
2018-12-19T12:25:56.044Z,98015.16
2018-12-19T12:28:27.545Z,98010.28
2018-12-19T12:30:59.143Z,98001.94
2018-12-19T12:33:30.684Z,97998.91
2018-12-19T12:36:02.608Z,98009.07
2018-12-19T12:38:34.440Z,98003.11
2018-12-19T12:41:06.066Z,97990.77
2018-12-19T12:43:37.628Z,97990.18
2018-12-19T12:46:09.252Z,97986.37
2018-12-19T12:48:40.751Z,97987.41
2018-12-19T12:51:12.350Z,97987.18
2018-12-19T12:53:43.864Z,97982.34
2018-12-19T12:56:15.404Z,97982.39
2018-12-19T12:58:46.861Z,97978.06
2018-12-19T13:01:18.500Z,97977.64
2018-12-19T13:03:49.960Z,97976.56
2018-12-19T13:06:21.524Z,97973.37
2018-12-19T13:08:53.020Z,97974.90
2018-12-19T13:11:24.710Z,97969.60
2018-12-19T13:13:56.147Z,97974.13
2018-12-19T13:16:27.717Z,97963.83
2018-12-19T13:18:59.341Z,97961.94
2018-12-19T13:21:31.188Z,97960.64
2018-12-19T13:24:02.692Z,97970.58
2018-12-19T13:26:34.158Z,97974.23
2018-12-19T13:29:05.697Z,97979.08
2018-12-19T13:31:37.158Z,97982.81
2018-12-19T13:34:08.770Z,97984.03
2018-12-19T13:36:40.272Z,97982.04
2018-12-19T13:39:11.882Z,97986.31
2018-12-19T13:41:43.381Z,97976.83
2018-12-19T13:44:16.198Z,97983.63
2018-12-19T13:46:47.912Z,97975.70
2018-12-19T13:49:19.453Z,97972.13
2018-12-19T13:51:51.029Z,97963.01
2018-12-19T13:54:22.418Z,97958.87
2018-12-19T13:56:54.015Z,97950.80
2018-12-19T13:59:25.574Z,97951.91
2018-12-19T14:01:57.119Z,97955.03
2018-12-19T14:04:29.082Z,97958.16
2018-12-19T14:07:01.230Z,97957.59
2018-12-19T14:09:32.923Z,97958.48
2018-12-19T14:12:04.573Z,97963.41
2018-12-19T14:14:36.221Z,97952.70
2018-12-19T14:17:07.776Z,97957.11
2018-12-19T14:19:39.492Z,97958.59
2018-12-19T14:22:11.009Z,97956.46
2018-12-19T14:24:42.461Z,97956.38
2018-12-19T14:27:14.101Z,97953.80
2018-12-19T14:29:45.717Z,97961.73
2018-12-19T14:32:17.220Z,97958.58
2018-12-19T14:34:49.176Z,97962.42
2018-12-19T14:37:20.588Z,97960.70
2018-12-19T14:39:52.165Z,97961.33
2018-12-19T14:42:23.633Z,97957.43
2018-12-19T14:44:55.479Z,97956.53
2018-12-19T14:47:27.104Z,97951.87
2018-12-19T14:49:58.608Z,97944.08
2018-12-19T14:52:30.243Z,97952.28
2018-12-19T14:55:01.711Z,97949.16
2018-12-19T14:57:33.318Z,97939.20
2018-12-19T15:00:05.668Z,97939.52
2018-12-19T15:02:37.089Z,97936.16
2018-12-19T15:05:08.636Z,97935.13
2018-12-19T15:07:40.090Z,97934.86
2018-12-19T15:10:11.857Z,97928.27
2018-12-19T15:12:43.513Z,97927.06
2018-12-19T15:15:15.158Z,97924.99
2018-12-19T15:17:46.777Z,97921.92
2018-12-19T15:20:18.281Z,97923.33
2018-12-19T15:22:49.881Z,97928.44
2018-12-19T15:25:21.390Z,97935.86
2018-12-19T15:27:52.989Z,97927.83
2018-12-19T15:30:24.500Z,97928.84
2018-12-19T15:32:56.136Z,97929.27
2018-12-19T15:35:27.608Z,97934.59
2018-12-19T15:37:59.146Z,97928.85
2018-12-19T15:40:30.600Z,97919.87
2018-12-19T15:43:02.143Z,97922.98
2018-12-19T15:45:33.606Z,97930.16
2018-12-19T15:48:05.212Z,97928.16
2018-12-19T15:50:36.720Z,97925.22
2018-12-19T15:53:08.264Z,97916.73
2018-12-19T15:55:39.720Z,97912.06
2018-12-19T15:58:11.333Z,97911.17
2018-12-19T16:00:42.834Z,97904.27
2018-12-19T16:03:14.379Z,97903.39
2018-12-19T16:05:45.834Z,97905.45
2018-12-19T16:08:17.434Z,97902.48
2018-12-19T16:10:49.050Z,97894.77
2018-12-19T16:13:20.587Z,97897.40
2018-12-19T16:15:52.056Z,97893.92
2018-12-19T16:18:23.593Z,97897.48
2018-12-19T16:20:55.238Z,97891.79
2018-12-19T16:23:26.800Z,97890.78
2018-12-19T16:25:58.381Z,97892.30
2018-12-19T16:28:29.905Z,97887.53
2018-12-19T16:31:01.365Z,97882.09
2018-12-19T16:33:32.919Z,97879.64
2018-12-19T16:36:04.386Z,97875.48
2018-12-19T16:38:35.986Z,97873.09
2018-12-19T16:41:07.497Z,97870.89
2018-12-19T16:43:39.089Z,97868.30
2018-12-19T16:46:10.599Z,97863.97
2018-12-19T16:48:42.194Z,97867.11
2018-12-19T16:51:13.716Z,97863.62
2018-12-19T16:53:45.252Z,97864.09
2018-12-19T16:56:16.707Z,97865.63
2018-12-19T16:58:48.304Z,97870.88
2018-12-19T17:01:19.919Z,97874.58
2018-12-19T17:03:51.556Z,97881.44
2018-12-19T17:06:22.988Z,97875.73
2018-12-19T17:08:54.568Z,97876.05
2018-12-19T17:11:26.080Z,97878.78
2018-12-19T17:13:57.679Z,97883.38
2018-12-19T17:16:29.092Z,97887.95
2018-12-19T17:19:00.690Z,97886.80
2018-12-19T17:21:32.301Z,97884.69
2018-12-19T17:24:03.811Z,97891.34
2018-12-19T17:26:35.320Z,97894.52
2018-12-19T17:29:06.903Z,97887.70
2018-12-19T17:31:38.514Z,97896.67
2018-12-19T17:34:10.020Z,97894.92
2018-12-19T17:36:41.620Z,97897.89
2018-12-19T17:39:13.129Z,97897.53
2018-12-19T17:41:44.663Z,97895.31
2018-12-19T17:44:16.229Z,97901.22
2018-12-19T17:46:47.836Z,97903.67
2018-12-19T17:49:19.349Z,97898.44
2018-12-19T17:51:50.949Z,97904.40
2018-12-19T17:54:22.446Z,97911.23
2018-12-19T17:56:54.053Z,97904.70
2018-12-19T17:59:25.535Z,97901.61
2018-12-19T18:01:57.267Z,97900.17
2018-12-19T18:04:28.716Z,97902.48
2018-12-19T18:07:00.303Z,97909.98
2018-12-19T18:09:31.821Z,97919.91
2018-12-19T18:12:03.515Z,97922.94
2018-12-19T18:14:35.137Z,97923.89
2018-12-19T18:17:06.645Z,97925.70
2018-12-19T18:19:38.244Z,97920.78
2018-12-19T18:22:09.745Z,97924.07
2018-12-19T18:24:41.299Z,97934.77
2018-12-19T18:27:12.761Z,97927.14
2018-12-19T18:29:44.391Z,97921.90
2018-12-19T18:32:15.870Z,97921.54
2018-12-19T18:34:48.186Z,97920.95
2018-12-19T18:37:19.767Z,97918.41
2018-12-19T18:39:51.184Z,97919.16
2018-12-19T18:42:23.086Z,97918.61
2018-12-19T18:44:54.700Z,97919.80
2018-12-19T18:47:26.209Z,97921.10
2018-12-19T18:49:57.762Z,97918.31
2018-12-19T18:52:29.207Z,97923.80
2018-12-19T18:55:00.748Z,97916.30
2018-12-19T18:57:32.226Z,97913.81
2018-12-19T19:00:04.425Z,97912.23
2018-12-19T19:02:36.230Z,97903.89
2018-12-19T19:05:08.090Z,97905.23
2018-12-19T19:07:39.698Z,97901.41
2018-12-19T19:10:11.680Z,97896.91
2018-12-19T19:12:43.430Z,97904.27
2018-12-19T19:15:15.017Z,97911.66
2018-12-19T19:17:46.636Z,97903.33
2018-12-19T19:20:18.165Z,97903.51
2018-12-19T19:22:49.561Z,97894.95
2018-12-19T19:25:21.137Z,97891.30
2018-12-19T19:27:52.590Z,97894.64
2018-12-19T19:30:24.151Z,97892.33
2018-12-19T19:32:55.564Z,97895.30
2018-12-19T19:35:27.164Z,97889.69
2018-12-19T19:37:58.777Z,97881.05
2018-12-19T19:40:30.497Z,97883.30
2018-12-19T19:43:02.083Z,97880.27
2018-12-19T19:45:33.586Z,97885.13
2018-12-19T19:48:05.126Z,97881.09
2018-12-19T19:50:36.592Z,97887.27
2018-12-19T19:53:08.191Z,97887.22
2018-12-19T19:55:39.690Z,97885.07
2018-12-19T19:58:11.351Z,97876.53
2018-12-19T20:00:42.804Z,97880.38
2018-12-19T20:03:14.340Z,97876.59
2018-12-19T20:05:45.818Z,97877.19
2018-12-19T20:08:17.351Z,97880.36
2018-12-19T20:10:48.821Z,97874.69
2018-12-19T20:13:20.365Z,97871.90
2018-12-19T20:15:51.948Z,97883.66
2018-12-19T20:18:23.535Z,97882.39
2018-12-19T20:20:55.089Z,97876.01
2018-12-19T20:23:26.744Z,97880.63
2018-12-19T20:25:58.239Z,97875.37
2018-12-19T20:28:29.780Z,97879.20
2018-12-19T20:31:01.413Z,97876.02
2018-12-19T20:33:32.999Z,97878.39
2018-12-19T20:36:04.424Z,97877.61
2018-12-19T20:38:36.208Z,97871.88
2018-12-19T20:41:07.821Z,97875.53
2018-12-19T20:43:40.021Z,97873.22
2018-12-19T20:46:11.844Z,97868.47
2018-12-19T20:48:43.539Z,97863.27
2018-12-19T20:51:14.967Z,97872.77
2018-12-19T20:53:46.555Z,97869.83
2018-12-19T20:56:18.162Z,97865.76
2018-12-19T20:58:49.788Z,97864.26
2018-12-19T21:01:21.190Z,97864.03
2018-12-19T21:03:52.764Z,97855.69
2018-12-19T21:06:24.375Z,97856.09
2018-12-19T21:08:55.889Z,97860.09
2018-12-19T21:11:27.738Z,97863.36
2018-12-19T21:13:59.324Z,97862.79
2018-12-19T21:16:35.695Z,97862.84
2018-12-19T21:19:07.120Z,97869.59
2018-12-19T21:21:38.760Z,97873.16
2018-12-19T21:24:10.241Z,97870.30
2018-12-19T21:26:41.763Z,97873.22
2018-12-19T21:29:13.800Z,97875.69
2018-12-19T21:31:45.297Z,97874.86
2018-12-19T21:34:16.909Z,97883.47
2018-12-19T21:36:48.530Z,97886.10
2018-12-19T21:39:19.896Z,97884.06
2018-12-19T21:41:51.513Z,97888.77
2018-12-19T21:44:23.157Z,97891.22
2018-12-19T21:46:55.183Z,97889.36
2018-12-19T21:49:26.688Z,97893.12
2018-12-19T21:51:58.222Z,97893.98
2018-12-19T21:54:29.849Z,97892.94
2018-12-19T21:57:02.921Z,97888.84
2018-12-19T21:59:34.898Z,97889.99
2018-12-19T22:02:07.055Z,97887.05
2018-12-19T22:04:38.748Z,97887.39
2018-12-19T22:07:10.334Z,97890.95
2018-12-19T22:09:41.873Z,97887.39
2018-12-19T22:12:13.323Z,97884.94
2018-12-19T22:14:45.117Z,97883.59
2018-12-19T22:17:21.751Z,97885.13
2018-12-19T22:19:53.222Z,97887.33
2018-12-19T22:22:24.817Z,97887.76
2018-12-19T22:24:56.630Z,97880.77
2018-12-19T22:27:28.270Z,97878.41
2018-12-19T22:29:59.832Z,97874.36
2018-12-19T22:32:31.387Z,97878.84
2018-12-19T22:35:02.877Z,97878.56
2018-12-19T22:37:34.549Z,97879.10
2018-12-19T22:40:07.678Z,97873.48
2018-12-19T22:42:39.156Z,97878.90
2018-12-19T22:45:10.771Z,97874.79
2018-12-19T22:47:42.252Z,97859.98
2018-12-19T22:50:13.902Z,97861.52
2018-12-19T22:52:45.617Z,97848.27
2018-12-19T22:55:16.976Z,97840.41
2018-12-19T22:57:48.472Z,97841.65
2018-12-19T23:00:20.825Z,97835.24
2018-12-19T23:02:57.535Z,97836.95
2018-12-19T23:05:34.091Z,97836.65
2018-12-19T23:08:05.696Z,97838.05
2018-12-19T23:10:37.233Z,97836.61
2018-12-19T23:13:08.515Z,97832.34
2018-12-19T23:15:40.203Z,97832.52
2018-12-19T23:18:16.820Z,97830.91
2018-12-19T23:20:48.296Z,97827.58
2018-12-19T23:23:19.938Z,97831.80
2018-12-19T23:25:51.787Z,97830.05
2018-12-19T23:28:23.313Z,97828.06
2018-12-19T23:30:54.851Z,97828.94
2018-12-19T23:33:26.362Z,97831.65
2018-12-19T23:35:58.282Z,97827.27
2018-12-19T23:38:29.813Z,97831.77
2018-12-19T23:41:01.476Z,97830.62
2018-12-19T23:43:33.080Z,97830.85
2018-12-19T23:46:04.689Z,97834.67
2018-12-19T23:48:36.793Z,97833.72
2018-12-19T23:51:08.460Z,97829.37
2018-12-19T23:53:39.991Z,97830.52
2018-12-19T23:56:11.530Z,97830.05
2018-12-19T23:58:43.071Z,97825.14
